Las Americas, Dominican Republic

12:36 PM AST on March 03, 2015 (GMT -0400)
Las Americas International | Change Station
CLOSE
Current Station
Airport
Location: Las Americas,
Elevation: 59 ft
Nearby Weather Stations

Elev 59 ft 18.43 °N, 69.67 °W | Updated 36 minutes ago

Mostly Cloudy
Mostly Cloudy
82 °F
Feels Like 87 °F
N
5
Wind Variable Wind from ENE

Today
High -- | Low -- °F
--% Chance of Precip.
Yesterday
High -- | Low -- °F
Precip. -- in
6:56 AM 6:45 PM
Waxing Gibbous, 96% visible
Pressure 30.06 in
Visibility 5.0 miles
Clouds Mostly Cloudy 1600 ft
Mostly Cloudy 7000 ft
Heat Index 87 °F
Dew Point 72 °F
Humidity 70%
Rainfall 0.00 in
Snow Depth Not available.
UV 8 out of 12
Pollen Not available.
Air Quality Not available.
Flu Activity Not available.
METAR MDSD 031600Z 06004KT 8000 VCSH BKN016 BKN070 28/22 Q1018 RERA

More Conditions Fewer Conditions

Pressure 30.06 in
Visibility 5.0 miles
Clouds Mostly Cloudy 1600 ft
Mostly Cloudy 7000 ft
Heat Index 87 °F
Dew Point 72 °F
Humidity 70%
Rainfall 0.00 in
Snow Depth Not available.
UV 8 out of 12
Pollen Not available.
Air Quality Not available.
Flu Activity Not available.
METAR MDSD 031600Z 06004KT 8000 VCSH BKN016 BKN070 28/22 Q1018 RERA

More Conditions Fewer Conditions

10-Day Weather Forecast

Almanac

Astronomy

Mar. 03, 2015 Rise Set
Actual Time
Civil Twilight
Nautical Twilight
Astronomical Twilight
Moon
Length of Visible Light
Length of Day
Tomorrow will be .
, % of the Moon is Illuminated

Today's Extremes

Country Highs Country Lows

Community

WunderPhotos

Upload Photos

1,802,164 photos uploaded!

WunderBlogs® & News

Nearby

Air Quality

  Air Quality AQ Index Pollutant
Not available.

Snow Depth

Station Depth Elevation

Earthquake Activity

City Distance Mag. Time & Date
Minimum magnitude displayed is 2.5.

Coastal Water Temperatures

Place Temperature

Nearby Weather Stations